Time;durP1;ratioP1;P1;durP2;ratioP2;P2;SDS_P1;SDS_P2;PMS_P1;PMS_P2;Temp;Humidity;BMP_temperature;BMP_pressure;BME280_temperature;BME280_humidity;BME280_pressure;Samples;Min_cycle;Max_cycle;Signal;HPM_P1;HPM_P2
2022/03/04 00:04:38;;;;;;;14.73;5.47;;;0.40;93.60;;;;;;10246014;28;20066;-88
2022/03/04 00:09:40;;;;;;;16.58;5.60;;;0.40;93.40;;;;;;10259086;28;20043;-88
2022/03/04 00:14:42;;;;;;;18.00;6.32;;;0.40;93.80;;;;;;10241892;28;20051;-88
2022/03/04 00:19:44;;;;;;;11.45;4.03;;;0.30;92.50;;;;;;10254676;28;20047;-88
2022/03/04 00:24:46;;;;;;;15.77;4.72;;;0.30;92.00;;;;;;10255534;28;20102;-88
2022/03/04 00:29:48;;;;;;;15.32;4.93;;;0.30;92.20;;;;;;10263739;28;20049;-88
2022/03/04 00:34:50;;;;;;;16.20;5.10;;;0.30;91.70;;;;;;10247929;28;20051;-88
2022/03/04 00:39:52;;;;;;;13.82;4.57;;;0.30;91.50;;;;;;10241514;28;20104;-88
2022/03/04 00:44:54;;;;;;;12.52;4.75;;;0.20;92.00;;;;;;10248170;28;20117;-88
2022/03/04 00:49:59;;;;;;;18.00;6.43;;;0.20;91.90;;;;;;10250585;28;20070;-88
2022/03/04 00:55:01;;;;;;;14.65;5.07;;;0.10;91.90;;;;;;10267387;28;20046;-88
2022/03/04 01:00:05;;;;;;;15.23;4.68;;;0.00;93.20;;;;;;10261304;28;20057;-88
2022/03/04 01:05:08;;;;;;;13.45;5.00;;;-0.10;96.10;;;;;;10266988;28;20053;-88
2022/03/04 01:10:09;;;;;;;15.55;5.55;;;-0.20;97.50;;;;;;10262214;28;20050;-87
2022/03/04 01:15:12;;;;;;;13.35;4.65;;;-0.30;98.10;;;;;;10246119;28;20047;-88
2022/03/04 01:20:14;;;;;;;14.10;5.50;;;-0.40;98.90;;;;;;10265710;28;20058;-88
2022/03/04 01:25:16;;;;;;;15.43;5.65;;;-0.40;99.90;;;;;;10251431;28;20051;-88
2022/03/04 01:30:18;;;;;;;13.23;5.63;;;-0.50;99.90;;;;;;10270366;28;20047;-89
2022/03/04 01:35:20;;;;;;;14.18;4.80;;;-0.60;99.90;;;;;;10249076;28;20059;-89
2022/03/04 01:40:22;;;;;;;14.98;5.93;;;-0.70;99.90;;;;;;10227028;28;20066;-89
2022/03/04 01:45:25;;;;;;;15.55;4.97;;;-0.70;99.90;;;;;;10249178;28;20420;-89
2022/03/04 01:50:27;;;;;;;15.45;5.28;;;-0.80;99.90;;;;;;10300884;28;20745;-89
2022/03/04 01:55:29;;;;;;;15.73;5.50;;;-0.80;99.90;;;;;;10261539;28;20516;-89
2022/03/04 02:00:31;;;;;;;20.45;5.85;;;-0.80;99.90;;;;;;10302634;28;20125;-89
2022/03/04 02:05:33;;;;;;;15.93;5.40;;;-0.90;99.90;;;;;;10283978;28;20162;-89
2022/03/04 02:10:35;;;;;;;17.35;6.60;;;-0.90;99.90;;;;;;10299893;28;20059;-88
2022/03/04 02:15:37;;;;;;;17.90;5.68;;;-0.90;99.90;;;;;;10268278;28;20130;-88
2022/03/04 02:20:43;;;;;;;16.73;5.38;;;-0.90;99.90;;;;;;10279157;28;20448;-89
2022/03/04 02:25:48;;;;;;;14.05;6.03;;;-0.90;99.90;;;;;;10258137;28;20046;-89
2022/03/04 02:30:50;;;;;;;18.80;5.55;;;-0.90;99.90;;;;;;10290885;28;20497;-90
2022/03/04 02:35:52;;;;;;;15.52;5.45;;;-0.90;99.90;;;;;;10263923;28;20069;-90
2022/03/04 02:40:53;;;;;;;13.75;5.10;;;-1.00;99.90;;;;;;10260909;28;20444;-89
2022/03/04 02:45:58;;;;;;;15.20;5.03;;;-1.00;99.90;;;;;;10276891;28;20133;-89
2022/03/04 02:51:00;;;;;;;12.90;5.40;;;-1.10;99.90;;;;;;10261519;28;20055;-89
2022/03/04 02:56:03;;;;;;;14.00;5.63;;;-1.10;99.90;;;;;;10236004;28;20417;-89
2022/03/04 03:01:05;;;;;;;17.08;5.28;;;-1.10;99.90;;;;;;10280766;28;20322;-89
2022/03/04 03:06:08;;;;;;;15.90;5.65;;;-1.10;99.90;;;;;;10293362;28;20081;-89
2022/03/04 03:11:10;;;;;;;15.63;6.00;;;-1.10;99.90;;;;;;10257759;28;20689;-89
2022/03/04 03:16:11;;;;;;;12.63;4.97;;;-1.10;99.90;;;;;;10279770;28;20049;-89
2022/03/04 03:21:13;;;;;;;20.10;5.40;;;-1.10;99.90;;;;;;10291416;28;20057;-89
2022/03/04 03:26:15;;;;;;;19.45;5.75;;;-1.10;99.90;;;;;;10254371;28;20050;-89
2022/03/04 03:31:17;;;;;;;20.98;6.50;;;-1.10;99.90;;;;;;10277658;28;20497;-89
2022/03/04 03:36:20;;;;;;;19.42;6.22;;;-1.10;99.90;;;;;;10293702;28;20097;-89
2022/03/04 03:41:22;;;;;;;16.70;5.22;;;-1.10;99.90;;;;;;10292724;28;20048;-89
2022/03/04 03:46:24;;;;;;;20.05;6.65;;;-1.20;99.90;;;;;;10264080;28;20083;-90
2022/03/04 03:51:26;;;;;;;15.13;5.65;;;-1.20;99.90;;;;;;10274038;28;20050;-89
2022/03/04 03:56:33;;;;;;;15.32;6.35;;;-1.20;99.90;;;;;;10270435;28;20066;-89
2022/03/04 04:01:46;;;;;;;20.73;5.47;;;-1.20;99.90;;;;;;10280742;28;20077;-89
2022/03/04 04:06:48;;;;;;;15.55;6.50;;;-1.20;99.90;;;;;;10283025;28;20073;-89
2022/03/04 04:11:52;;;;;;;20.75;5.60;;;-1.20;99.90;;;;;;10262220;28;20493;-89
2022/03/04 04:16:56;;;;;;;15.30;5.32;;;-1.20;99.90;;;;;;10265187;28;20082;-89
2022/03/04 04:21:57;;;;;;;15.65;6.53;;;-1.30;99.90;;;;;;10276299;28;20049;-89
2022/03/04 04:26:59;;;;;;;14.93;5.65;;;-1.30;99.90;;;;;;10271127;28;20408;-89
2022/03/04 04:32:01;;;;;;;16.10;5.68;;;-1.40;99.90;;;;;;10276232;28;20046;-89
2022/03/04 04:37:03;;;;;;;20.77;6.68;;;-1.40;99.90;;;;;;10277306;28;20051;-90
2022/03/04 04:42:05;;;;;;;17.00;6.45;;;-1.40;99.90;;;;;;10265002;28;20100;-89
2022/03/04 04:47:07;;;;;;;17.08;7.30;;;-1.40;99.90;;;;;;10285483;28;20046;-89
2022/03/04 04:52:15;;;;;;;16.30;5.65;;;-1.40;99.90;;;;;;10272213;28;21016;-89
2022/03/04 04:57:17;;;;;;;21.05;7.88;;;-1.40;99.90;;;;;;10296485;28;20065;-88
2022/03/04 05:02:19;;;;;;;20.85;7.82;;;-1.50;99.90;;;;;;10269240;28;20054;-89
2022/03/04 05:07:22;;;;;;;15.10;6.28;;;-1.50;99.90;;;;;;10273600;28;20126;-89
2022/03/04 05:12:24;;;;;;;21.35;7.00;;;-1.50;99.90;;;;;;10282407;28;20050;-88
2022/03/04 05:17:26;;;;;;;15.32;5.88;;;-1.60;99.90;;;;;;10299418;28;20061;-89
2022/03/04 05:22:28;;;;;;;27.40;6.93;;;-1.60;99.90;;;;;;10276751;28;20066;-88
2022/03/04 05:27:30;;;;;;;17.10;5.53;;;-1.60;99.90;;;;;;10282635;28;20042;-88
2022/03/04 05:32:31;;;;;;;16.77;5.88;;;-1.70;99.90;;;;;;10265437;28;20492;-88
2022/03/04 05:37:33;;;;;;;23.02;5.68;;;-1.70;99.90;;;;;;10257591;28;20051;-89
2022/03/04 05:42:36;;;;;;;25.27;6.63;;;-1.70;99.90;;;;;;10278812;28;20069;-88
2022/03/04 05:47:37;;;;;;;25.63;7.88;;;-1.70;99.90;;;;;;10282301;28;20117;-87
2022/03/04 05:52:39;;;;;;;16.67;7.45;;;-1.60;99.90;;;;;;10296073;28;20476;-87
2022/03/04 05:57:41;;;;;;;20.05;6.85;;;-1.70;99.90;;;;;;10281449;28;20042;-88
2022/03/04 06:02:46;;;;;;;20.50;6.45;;;-1.60;99.90;;;;;;10265302;28;20052;-89
2022/03/04 06:07:48;;;;;;;18.58;6.05;;;-1.60;99.90;;;;;;10288034;28;20039;-89
2022/03/04 06:12:51;;;;;;;20.50;6.60;;;-1.60;99.90;;;;;;10286169;28;20054;-89
2022/03/04 06:17:52;;;;;;;19.98;7.03;;;-1.60;99.90;;;;;;10044160;28;20051;-90
2022/03/04 06:22:54;;;;;;;17.52;6.55;;;-1.60;99.90;;;;;;10284926;28;20046;-89
2022/03/04 06:28:02;;;;;;;21.65;6.75;;;-1.60;99.90;;;;;;10269225;28;20073;-89
2022/03/04 06:38:26;;;;;;;19.88;6.82;;;-1.50;99.90;;;;;;10286693;28;20050;-87
2022/03/04 06:43:28;;;;;;;19.27;6.90;;;-1.40;99.90;;;;;;10280181;28;20055;-86
2022/03/04 06:48:30;;;;;;;22.40;7.45;;;-1.30;99.90;;;;;;10290443;28;20054;-86
2022/03/04 06:53:33;;;;;;;21.48;6.53;;;-1.30;99.90;;;;;;10293368;28;20056;-88
2022/03/04 06:58:35;;;;;;;21.92;7.00;;;-1.20;99.90;;;;;;10258021;28;20066;-88
2022/03/04 07:03:38;;;;;;;20.77;6.93;;;-1.10;99.90;;;;;;10268031;28;20674;-87
2022/03/04 07:08:40;;;;;;;18.75;7.57;;;-0.90;99.90;;;;;;10249148;28;20069;-87
2022/03/04 07:13:41;;;;;;;23.02;9.07;;;-0.80;99.90;;;;;;10281283;28;20533;-87
2022/03/04 07:18:43;;;;;;;25.17;7.75;;;-0.70;99.90;;;;;;10271162;28;20065;-88
2022/03/04 07:23:45;;;;;;;24.35;8.57;;;-0.50;99.90;;;;;;10273593;28;20054;-88
2022/03/04 07:28:47;;;;;;;25.17;8.95;;;-0.40;99.90;;;;;;10276643;28;20053;-88
2022/03/04 07:33:49;;;;;;;19.85;7.45;;;-0.30;99.90;;;;;;10259737;28;20050;-88
2022/03/04 07:38:55;;;;;;;21.55;7.82;;;-0.20;99.90;;;;;;10269516;28;20043;-88
2022/03/04 07:43:59;;;;;;;23.52;8.57;;;-0.10;99.90;;;;;;10275495;28;20130;-88
2022/03/04 07:49:06;;;;;;;23.85;8.50;;;0.00;99.90;;;;;;10280447;28;20046;-88
2022/03/04 07:54:07;;;;;;;22.73;9.03;;;0.20;99.90;;;;;;10272508;28;20085;-90
2022/03/04 07:59:09;;;;;;;23.00;8.65;;;0.40;99.90;;;;;;10256789;28;20069;-90
2022/03/04 08:04:12;;;;;;;25.77;8.07;;;0.50;99.90;;;;;;10279750;28;20092;-90
2022/03/04 08:09:14;;;;;;;25.60;9.05;;;0.60;99.90;;;;;;10274636;28;20128;-90
2022/03/04 08:14:16;;;;;;;24.60;8.98;;;0.70;99.90;;;;;;10279166;28;20109;-90
2022/03/04 08:19:18;;;;;;;26.52;8.70;;;0.90;99.90;;;;;;10286362;28;20050;-90
2022/03/04 08:24:20;;;;;;;27.13;9.07;;;1.00;99.90;;;;;;10288601;28;20149;-90
2022/03/04 08:29:22;;;;;;;25.83;8.52;;;1.10;99.90;;;;;;10280883;28;20480;-90
2022/03/04 08:34:24;;;;;;;24.23;9.07;;;1.20;99.90;;;;;;10252543;28;20065;-90
2022/03/04 08:39:26;;;;;;;23.33;8.98;;;1.20;99.90;;;;;;10271662;28;20046;-90
2022/03/04 08:44:28;;;;;;;21.35;9.15;;;1.40;99.90;;;;;;10265267;28;20527;-90
2022/03/04 08:49:30;;;;;;;29.77;10.25;;;1.50;99.30;;;;;;10230925;28;20129;-90
2022/03/04 08:54:32;;;;;;;25.52;8.73;;;1.50;99.90;;;;;;10255628;28;20054;-90
2022/03/04 08:59:34;;;;;;;24.52;9.45;;;1.60;99.90;;;;;;10260971;28;20066;-90
2022/03/04 09:04:36;;;;;;;23.02;9.35;;;1.70;99.10;;;;;;10252753;28;20057;-91
2022/03/04 09:09:38;;;;;;;25.02;9.32;;;1.90;99.40;;;;;;10224668;28;20141;-91
2022/03/04 09:14:43;;;;;;;28.02;8.88;;;2.00;98.20;;;;;;10256335;28;20057;-91
2022/03/04 09:19:45;;;;;;;32.33;11.13;;;2.10;97.20;;;;;;10259188;28;20043;-91
2022/03/04 09:24:58;;;;;;;32.90;12.10;;;2.30;96.40;;;;;;10246424;28;20061;-90
2022/03/04 09:30:00;;;;;;;30.27;12.15;;;2.30;94.90;;;;;;10257822;28;20057;-90
2022/03/04 09:35:03;;;;;;;33.17;10.82;;;2.40;94.20;;;;;;10256516;28;20133;-90
2022/03/04 09:40:06;;;;;;;26.95;9.95;;;2.60;93.40;;;;;;10242527;28;20051;-89
2022/03/04 09:45:08;;;;;;;28.40;9.57;;;2.70;92.30;;;;;;10256747;28;20086;-89
2022/03/04 09:50:12;;;;;;;28.30;10.85;;;2.90;93.00;;;;;;10256883;28;20125;-89
2022/03/04 09:55:14;;;;;;;31.10;11.35;;;3.10;91.20;;;;;;10243505;28;20370;-90
2022/03/04 10:00:16;;;;;;;25.58;9.93;;;3.20;88.70;;;;;;10269346;28;20130;-90
2022/03/04 10:05:18;;;;;;;31.27;12.07;;;3.40;91.30;;;;;;10254642;28;20073;-89
2022/03/04 10:10:22;;;;;;;31.52;11.65;;;3.50;88.30;;;;;;10250874;28;20054;-89
2022/03/04 10:15:25;;;;;;;34.83;11.60;;;3.70;88.00;;;;;;10235053;28;20057;-90
2022/03/04 10:20:42;;;;;;;30.90;11.70;;;3.80;86.60;;;;;;10248153;28;20579;-90
2022/03/04 10:25:50;;;;;;;33.65;12.27;;;3.90;86.30;;;;;;10241678;28;20902;-90
2022/03/04 10:30:57;;;;;;;29.17;11.00;;;4.10;85.70;;;;;;10252480;28;20134;-91
2022/03/04 10:36:19;;;;;;;28.73;11.32;;;4.20;84.90;;;;;;10246652;28;20145;-91
2022/03/04 10:41:33;;;;;;;26.58;11.15;;;4.30;85.30;;;;;;10254309;28;20058;-90
2022/03/04 10:47:00;;;;;;;27.00;11.23;;;4.40;81.80;;;;;;10255691;28;20062;-90
2022/03/04 10:52:11;;;;;;;40.17;11.68;;;4.60;83.10;;;;;;10276730;28;20057;-90
2022/03/04 10:57:26;;;;;;;35.00;12.27;;;4.70;81.50;;;;;;10276481;28;20723;-91
2022/03/04 11:03:37;;;;;;;30.25;12.55;;;4.90;82.70;;;;;;9862800;28;20513;-91
2022/03/04 11:08:59;;;;;;;33.92;12.98;;;5.00;80.40;;;;;;9794616;29;20563;-91
2022/03/04 11:14:15;;;;;;;32.50;11.40;;;5.10;79.40;;;;;;9877635;28;20056;-90
2022/03/04 11:19:19;;;;;;;33.20;12.50;;;5.30;78.10;;;;;;10212017;28;20046;-90
2022/03/04 11:24:29;;;;;;;34.33;13.10;;;5.50;78.70;;;;;;10251405;28;20067;-90
2022/03/04 11:29:40;;;;;;;31.80;13.82;;;5.60;77.30;;;;;;10276612;28;20057;-89
2022/03/04 11:34:46;;;;;;;34.88;14.15;;;5.60;76.30;;;;;;10236928;28;20055;-90
2022/03/04 11:40:33;;;;;;;33.78;14.68;;;5.80;77.70;;;;;;10281911;28;20054;-90
2022/03/04 11:45:35;;;;;;;34.22;14.70;;;5.90;74.40;;;;;;10247029;28;20179;-90
2022/03/04 11:50:48;;;;;;;38.58;13.13;;;6.20;72.70;;;;;;10193349;28;20053;-90
2022/03/04 11:56:10;;;;;;;34.60;14.85;;;6.40;73.40;;;;;;10241761;28;20054;-90
2022/03/04 12:01:17;;;;;;;33.92;14.60;;;7.40;69.80;;;;;;10286365;28;20509;-89
2022/03/04 12:06:41;;;;;;;30.92;14.30;;;8.70;64.50;;;;;;10283035;28;20503;-90
2022/03/04 12:12:17;;;;;;;31.67;14.32;;;10.20;60.80;;;;;;10284045;28;20122;-90
2022/03/04 12:17:20;;;;;;;28.27;15.00;;;12.00;54.80;;;;;;10276259;28;20763;-90
2022/03/04 12:22:27;;;;;;;33.75;15.43;;;13.50;49.70;;;;;;10246618;28;21501;-90
2022/03/04 12:27:43;;;;;;;29.23;15.13;;;14.20;48.70;;;;;;10263784;28;20061;-90
2022/03/04 12:32:53;;;;;;;28.08;15.32;;;13.90;48.30;;;;;;10284086;28;20050;-90
2022/03/04 12:37:55;;;;;;;23.73;13.32;;;14.00;46.50;;;;;;10269125;28;20059;-90
2022/03/04 12:43:00;;;;;;;30.63;15.05;;;14.20;46.30;;;;;;10171457;28;20050;-90
2022/03/04 12:48:05;;;;;;;27.02;14.55;;;14.50;45.20;;;;;;10250346;28;20131;-91
2022/03/04 12:53:22;;;;;;;26.98;14.70;;;15.10;43.60;;;;;;10277345;28;20070;-90
2022/03/04 12:58:39;;;;;;;24.60;13.38;;;15.20;42.80;;;;;;10294451;28;20049;-89
2022/03/04 13:04:08;;;;;;;24.98;13.32;;;16.20;41.50;;;;;;10296127;28;20100;-89
2022/03/04 13:09:11;;;;;;;25.55;14.38;;;16.60;40.20;;;;;;10263101;28;20537;-89
2022/03/04 13:14:17;;;;;;;22.00;13.07;;;17.50;39.00;;;;;;10259740;28;20064;-89
2022/03/04 13:19:31;;;;;;;23.30;13.80;;;17.80;37.90;;;;;;10234096;28;20054;-90
2022/03/04 13:24:40;;;;;;;22.17;12.65;;;18.30;37.80;;;;;;10266269;28;20085;-90
2022/03/04 13:29:46;;;;;;;21.30;13.48;;;;;;;;;;10216714;28;20046;-90
2022/03/04 13:35:01;;;;;;;24.48;13.02;;;19.20;35.60;;;;;;10232860;28;20057;-90
2022/03/04 13:40:26;;;;;;;23.67;13.15;;;19.50;34.80;;;;;;10257482;28;20078;-90
2022/03/04 13:45:46;;;;;;;22.58;13.15;;;19.00;36.60;;;;;;10228714;28;20485;-90
2022/03/04 13:51:12;;;;;;;24.08;13.93;;;19.20;35.90;;;;;;10257214;28;20188;-90
2022/03/04 13:56:18;;;;;;;23.95;13.43;;;19.40;35.50;;;;;;10243943;28;20105;-90
2022/03/04 14:01:22;;;;;;;24.73;13.65;;;19.10;36.10;;;;;;10245133;28;20039;-90
2022/03/04 14:06:25;;;;;;;26.80;14.27;;;19.10;36.20;;;;;;10296135;28;20050;-91
2022/03/04 14:11:26;;;;;;;24.83;13.82;;;18.50;37.00;;;;;;10283168;28;20125;-91
2022/03/04 14:16:29;;;;;;;23.05;12.63;;;18.60;36.50;;;;;;10293579;28;20082;-91
2022/03/04 14:21:31;;;;;;;26.70;13.65;;;18.20;36.40;;;;;;10247675;28;20077;-90
2022/03/04 14:26:33;;;;;;;23.55;12.18;;;17.80;36.70;;;;;;10252163;28;20108;-89
2022/03/04 14:31:35;;;;;;;21.75;12.77;;;17.70;37.20;;;;;;10275619;28;20069;-90
2022/03/04 14:36:55;;;;;;;23.38;12.43;;;16.90;37.90;;;;;;10207038;28;20056;-89
2022/03/04 14:42:21;;;;;;;23.73;11.23;;;16.20;38.50;;;;;;10231088;28;20047;-89
2022/03/04 14:47:27;;;;;;;24.27;12.73;;;16.00;39.30;;;;;;10134437;28;20377;-90
2022/03/04 14:52:51;;;;;;;23.88;12.45;;;15.60;40.60;;;;;;10148856;28;20047;-89
2022/03/04 15:04:06;;;;;;;25.85;12.60;;;14.20;42.70;;;;;;10077940;28;20083;-89
2022/03/04 15:09:08;;;;;;;27.02;12.35;;;13.80;42.60;;;;;;10192859;28;20065;-89
2022/03/04 15:14:56;;;;;;;27.08;12.13;;;13.40;43.70;;;;;;10260886;28;20120;-89
2022/03/04 15:19:58;;;;;;;22.10;11.32;;;13.50;44.60;;;;;;10261259;28;20511;-89
2022/03/04 15:25:04;;;;;;;32.40;12.15;;;13.10;44.70;;;;;;10220586;28;21124;-89
2022/03/04 15:30:13;;;;;;;23.42;10.27;;;13.00;45.60;;;;;;10264182;28;20114;-88
2022/03/04 15:35:21;;;;;;;24.17;10.23;;;12.50;45.90;;;;;;10090252;28;20051;-88
2022/03/04 15:40:26;;;;;;;25.13;10.35;;;12.30;45.80;;;;;;10182114;28;20058;-88
2022/03/04 15:45:51;;;;;;;25.98;10.60;;;12.10;47.10;;;;;;10236990;28;20407;-88
2022/03/04 15:50:58;;;;;;;26.67;11.35;;;11.90;47.70;;;;;;10249948;28;20141;-88
2022/03/04 15:56:23;;;;;;;26.10;11.73;;;11.50;49.00;;;;;;9916657;28;20871;-89
2022/03/04 16:01:37;;;;;;;31.92;12.02;;;11.40;49.80;;;;;;10204534;28;20054;-88
2022/03/04 16:06:51;;;;;;;26.83;10.73;;;11.10;51.10;;;;;;10184124;28;20116;-88
2022/03/04 16:11:53;;;;;;;30.20;12.13;;;10.70;52.20;;;;;;10216790;28;20876;-88
2022/03/04 16:17:13;;;;;;;30.15;13.38;;;10.40;53.70;;;;;;10164452;28;20125;-88
2022/03/04 16:22:20;;;;;;;31.58;11.85;;;10.20;54.40;;;;;;10170035;28;20078;-89
2022/03/04 16:27:28;;;;;;;28.52;12.48;;;10.00;55.90;;;;;;10252927;28;20495;-88
2022/03/04 16:32:31;;;;;;;30.50;13.23;;;9.50;58.10;;;;;;10167227;28;20053;-88
2022/03/04 16:37:33;;;;;;;29.30;12.07;;;9.00;60.20;;;;;;10173445;28;20047;-88
2022/03/04 16:43:07;;;;;;;28.58;12.57;;;8.70;61.60;;;;;;10147181;28;20441;-89
2022/03/04 16:48:25;;;;;;;35.38;11.75;;;8.20;62.70;;;;;;10131337;28;20054;-87
2022/03/04 16:53:50;;;;;;;29.00;10.83;;;7.90;63.80;;;;;;10082364;28;20053;-88
2022/03/04 16:59:13;;;;;;;25.95;10.23;;;7.60;63.70;;;;;;10124474;28;20296;-87
2022/03/04 17:04:41;;;;;;;24.73;9.63;;;7.30;64.20;;;;;;10156299;28;20067;-88
2022/03/04 17:09:55;;;;;;;25.13;8.50;;;6.90;64.40;;;;;;10148556;28;20119;-89
2022/03/04 17:15:07;;;;;;;24.90;8.15;;;6.70;63.00;;;;;;10141989;28;20060;-88
2022/03/04 17:20:15;;;;;;;25.90;7.85;;;6.40;63.20;;;;;;10188202;28;20058;-89
2022/03/04 17:25:34;;;;;;;23.02;8.07;;;6.30;64.70;;;;;;10097491;28;20138;-89
2022/03/04 17:30:39;;;;;;;19.57;7.43;;;6.00;65.40;;;;;;10103610;28;20142;-87
2022/03/04 17:35:58;;;;;;;23.05;7.68;;;5.90;66.60;;;;;;10283931;28;20065;-89
2022/03/04 17:41:00;;;;;;;24.10;7.47;;;5.60;67.20;;;;;;10292502;28;20674;-89
2022/03/04 17:46:02;;;;;;;26.85;7.70;;;5.50;67.90;;;;;;10266500;28;20582;-88
2022/03/04 17:51:10;;;;;;;25.98;7.05;;;5.30;68.40;;;;;;10272614;28;20065;-88
2022/03/04 17:56:12;;;;;;;20.25;5.78;;;5.10;67.90;;;;;;10276790;28;20054;-88
2022/03/04 18:01:14;;;;;;;18.73;6.18;;;5.00;67.60;;;;;;10272148;28;20054;-88
2022/03/04 18:06:21;;;;;;;23.42;6.78;;;4.90;67.50;;;;;;10264740;28;20051;-88
2022/03/04 18:11:23;;;;;;;20.85;6.10;;;4.80;68.00;;;;;;10239728;28;20050;-88
2022/03/04 18:16:25;;;;;;;23.10;5.57;;;4.60;67.90;;;;;;10269638;28;20396;-88
2022/03/04 18:21:27;;;;;;;20.98;5.07;;;4.50;70.10;;;;;;10281491;28;20078;-89
2022/03/04 18:26:29;;;;;;;17.55;5.05;;;4.30;70.90;;;;;;10233347;28;20036;-88
2022/03/04 18:31:31;;;;;;;27.40;6.93;;;4.10;71.70;;;;;;10297051;28;20069;-88
2022/03/04 18:36:33;;;;;;;21.88;6.15;;;3.90;72.50;;;;;;10272919;28;20092;-89
2022/03/04 18:41:37;;;;;;;22.65;5.70;;;3.80;73.10;;;;;;10263841;28;20057;-88
2022/03/04 18:46:51;;;;;;;20.92;5.47;;;3.60;73.70;;;;;;10286650;28;20421;-88
2022/03/04 18:51:54;;;;;;;24.25;7.25;;;3.50;73.70;;;;;;10278337;28;20050;-88
2022/03/04 18:56:55;;;;;;;21.90;6.40;;;3.40;74.70;;;;;;10285667;28;20400;-87
2022/03/04 19:01:58;;;;;;;22.27;6.40;;;3.30;76.10;;;;;;10256661;28;20056;-88
2022/03/04 19:07:01;;;;;;;26.90;6.55;;;3.20;77.40;;;;;;10283498;28;20157;-87
2022/03/04 19:12:02;;;;;;;24.42;6.07;;;3.10;79.00;;;;;;10256507;28;20061;-87
2022/03/04 19:17:08;;;;;;;23.77;7.53;;;2.90;80.30;;;;;;10243218;28;20137;-87
2022/03/04 19:22:17;;;;;;;25.50;6.18;;;2.80;81.20;;;;;;10297654;28;20055;-89
2022/03/04 19:27:44;;;;;;;24.30;7.65;;;2.70;82.50;;;;;;10221018;28;20058;-90
2022/03/04 19:32:57;;;;;;;30.35;6.90;;;2.50;85.70;;;;;;10180723;28;20102;-90
2022/03/04 19:38:07;;;;;;;27.55;8.23;;;2.40;87.00;;;;;;10161923;28;20053;-89
2022/03/04 19:43:10;;;;;;;31.20;7.93;;;2.30;89.30;;;;;;10186696;28;20050;-90
2022/03/04 19:48:14;;;;;;;28.15;7.80;;;2.20;90.20;;;;;;10177126;28;20535;-90
2022/03/04 19:53:21;;;;;;;30.13;7.18;;;2.10;90.80;;;;;;10215589;28;20047;-91
2022/03/04 19:58:28;;;;;;;33.10;9.57;;;2.00;91.40;;;;;;10221693;28;21502;-91
2022/03/04 20:03:33;;;;;;;30.13;7.57;;;1.90;91.70;;;;;;10240278;28;20310;-91
2022/03/04 20:08:39;;;;;;;30.00;7.63;;;1.90;92.10;;;;;;10209189;28;20042;-91
2022/03/04 20:13:42;;;;;;;30.42;6.65;;;1.80;92.80;;;;;;10186136;28;20069;-90
2022/03/04 20:18:44;;;;;;;29.63;7.50;;;1.70;93.40;;;;;;10279336;28;20118;-90
2022/03/04 20:23:50;;;;;;;29.67;7.40;;;1.70;94.40;;;;;;10292556;28;20053;-90
2022/03/04 20:28:56;;;;;;;21.83;7.00;;;1.70;94.80;;;;;;10276808;28;20078;-90
2022/03/04 20:33:58;;;;;;;27.52;6.63;;;1.60;95.60;;;;;;10189440;28;20062;-90
2022/03/04 20:39:03;;;;;;;30.42;7.38;;;1.50;96.40;;;;;;10210816;28;20058;-90
2022/03/04 20:44:05;;;;;;;29.30;6.57;;;1.50;97.20;;;;;;10170357;28;20046;-90
2022/03/04 20:49:51;;;;;;;35.42;7.32;;;1.40;98.60;;;;;;10147980;28;20040;-89
2022/03/04 20:55:14;;;;;;;23.08;6.18;;;1.30;99.00;;;;;;10056633;28;20059;-89
2022/03/04 21:00:50;;;;;;;35.95;7.10;;;1.30;99.90;;;;;;9982797;28;20050;-89
2022/03/04 21:05:57;;;;;;;30.38;7.25;;;1.20;99.90;;;;;;10217263;28;20042;-90
2022/03/04 21:11:01;;;;;;;30.92;7.38;;;1.20;99.90;;;;;;10248250;28;20038;-88
2022/03/04 21:16:07;;;;;;;28.27;7.35;;;1.10;99.90;;;;;;10220480;28;20603;-88
2022/03/04 21:21:11;;;;;;;32.67;7.47;;;1.10;99.90;;;;;;10266451;28;20047;-89
2022/03/04 21:26:14;;;;;;;24.58;6.88;;;1.00;99.90;;;;;;10280209;28;20057;-88
2022/03/04 21:31:16;;;;;;;29.80;6.90;;;0.90;99.90;;;;;;10253770;28;20051;-89
2022/03/04 21:36:23;;;;;;;37.65;7.93;;;0.90;99.90;;;;;;10249195;28;20077;-89
2022/03/04 21:41:31;;;;;;;33.47;7.05;;;0.80;99.90;;;;;;10235192;28;20051;-88
2022/03/04 21:46:34;;;;;;;36.13;7.90;;;0.80;99.90;;;;;;10258022;28;20090;-89
2022/03/04 21:51:38;;;;;;;33.30;8.32;;;0.70;99.90;;;;;;10244391;28;20059;-89
2022/03/04 21:57:20;;;;;;;32.63;8.95;;;0.60;99.90;;;;;;10272679;28;20107;-89
2022/03/04 22:02:25;;;;;;;33.92;8.25;;;0.60;99.90;;;;;;10229569;28;20053;-90
2022/03/04 22:07:29;;;;;;;31.20;7.28;;;0.60;99.90;;;;;;10275919;28;20109;-90
2022/03/04 22:12:31;;;;;;;31.17;6.53;;;0.50;99.90;;;;;;10207270;28;20054;-88
2022/03/04 22:17:36;;;;;;;30.25;7.50;;;0.40;99.90;;;;;;10250941;28;20074;-88
2022/03/04 22:22:41;;;;;;;30.45;7.15;;;0.40;99.90;;;;;;10214059;28;20071;-88
2022/03/04 22:27:47;;;;;;;31.80;6.70;;;0.30;99.90;;;;;;10192721;28;20047;-88
2022/03/04 22:32:52;;;;;;;27.67;6.85;;;0.30;99.90;;;;;;10201416;28;20126;-88
2022/03/04 22:37:59;;;;;;;28.60;7.00;;;0.20;99.90;;;;;;10243179;28;23142;-88
2022/03/04 22:43:03;;;;;;;30.30;7.03;;;0.20;99.90;;;;;;10242319;28;20125;-88
2022/03/04 22:48:13;;;;;;;28.00;7.82;;;0.10;99.90;;;;;;10204745;28;20446;-87
2022/03/04 22:53:17;;;;;;;24.88;6.47;;;0.00;99.90;;;;;;10194645;28;20410;-88
2022/03/04 22:58:22;;;;;;;28.98;6.40;;;0.00;99.90;;;;;;10244538;28;20051;-88
2022/03/04 23:08:45;;;;;;;28.08;6.85;;;-0.10;99.90;;;;;;10235356;28;20114;-88
2022/03/04 23:13:47;;;;;;;24.27;6.68;;;-0.20;99.90;;;;;;10258170;28;20512;-88
2022/03/04 23:18:59;;;;;;;33.95;6.82;;;-0.20;99.90;;;;;;10246868;28;20050;-88
2022/03/04 23:24:06;;;;;;;25.75;7.05;;;-0.20;99.90;;;;;;10249202;28;20053;-88
2022/03/04 23:29:09;;;;;;;26.77;5.95;;;-0.30;99.90;;;;;;10220606;28;20063;-89
2022/03/04 23:34:13;;;;;;;24.77;6.38;;;-0.30;99.90;;;;;;10219508;28;20761;-88
2022/03/04 23:39:17;;;;;;;32.20;7.38;;;-0.40;99.90;;;;;;10203446;28;20145;-88
2022/03/04 23:44:18;;;;;;;24.95;6.68;;;-0.40;99.90;;;;;;10253799;28;20591;-88
2022/03/04 23:49:20;;;;;;;27.40;5.90;;;-0.50;99.90;;;;;;10246492;28;20053;-89
2022/03/04 23:54:22;;;;;;;23.85;5.90;;;-0.50;99.90;;;;;;10186994;28;20050;-90
2022/03/04 23:59:24;;;;;;;25.13;6.38;;;-0.60;99.90;;;;;;10236151;28;20093;-89
